East Hickory, Pennsylvania
Current Conditions -  °F | °C
As of 7:15 AM on Sunday 23 Nov 2014 (Local Time) from KFKL Reporting Station
Overcast Overcast  
Wind Chill: 39°   Ceiling: 3600
Heat Index: 43°   Visibility: 10mi
Dew Point: 34°   Wind: 7mph
Humidity: 70%   Direction: 210°SSW
Pressure: 30.09"   Gusts: NA
Location:  41.58°N, 79.4°W
Report Text: KFKL 231215Z AUTO 21006KT 10SM OVC036 06/01 A3009 RMK AO1
Loading
Personal Weather Stations






























Interactive Weather Map New forecast layout! Learn more

10-Day Weather Forecast

Advertisements
Track Severe Weather on mobile